createdAt,value
2017-01-23T00:04:38.081Z,-3.70
2017-01-23T00:09:34.390Z,-3.77
2017-01-23T00:14:30.737Z,-3.75
2017-01-23T00:19:27.978Z,-3.80
2017-01-23T00:24:24.142Z,-3.88
2017-01-23T00:29:21.348Z,-3.98
2017-01-23T00:34:17.185Z,-4.10
2017-01-23T00:39:14.081Z,-4.10
2017-01-23T00:44:10.324Z,-4.06
2017-01-23T00:49:06.482Z,-4.17
2017-01-23T00:54:02.650Z,-4.28
2017-01-23T00:58:58.966Z,-4.32
2017-01-23T01:03:55.203Z,-4.27
2017-01-23T01:08:51.602Z,-4.46
2017-01-23T01:13:47.694Z,-4.52
2017-01-23T01:18:43.470Z,-4.64
2017-01-23T01:23:39.580Z,-4.67
2017-01-23T01:28:35.858Z,-4.87
2017-01-23T01:33:32.097Z,-4.84
2017-01-23T01:38:28.076Z,-4.88
2017-01-23T01:43:24.277Z,-4.95
2017-01-23T01:48:20.694Z,-4.70
2017-01-23T01:53:19.172Z,-4.48
2017-01-23T01:58:14.869Z,-4.48
2017-01-23T02:03:11.195Z,-4.75
2017-01-23T02:08:07.198Z,-4.66
2017-01-23T02:13:03.958Z,-4.41
2017-01-23T02:18:00.183Z,-4.52
2017-01-23T02:22:56.240Z,-4.46
2017-01-23T02:27:53.337Z,-5.00
2017-01-23T02:32:50.562Z,-4.75
2017-01-23T02:37:46.548Z,-4.55
2017-01-23T02:42:42.850Z,-4.21
2017-01-23T02:47:39.082Z,-4.25
2017-01-23T02:52:35.365Z,-4.49
2017-01-23T02:57:32.194Z,-4.69
2017-01-23T03:02:29.103Z,-4.39
2017-01-23T03:07:25.393Z,-4.22
2017-01-23T03:12:21.773Z,-4.28
2017-01-23T03:17:18.027Z,-4.20
2017-01-23T03:22:14.289Z,-4.17
2017-01-23T03:27:10.533Z,-4.17
2017-01-23T03:32:06.890Z,-4.02
2017-01-23T03:37:03.372Z,-3.89
2017-01-23T03:42:00.410Z,-3.82
2017-01-23T03:46:57.645Z,-3.86
2017-01-23T03:56:54.271Z,-3.88
2017-01-23T04:01:50.935Z,-3.93
2017-01-23T04:06:46.750Z,-4.04
2017-01-23T04:11:42.800Z,-3.92
2017-01-23T04:16:39.923Z,-3.89
2017-01-23T04:21:36.297Z,-3.72
2017-01-23T04:26:32.347Z,-3.70
2017-01-23T04:31:28.661Z,-3.63
2017-01-23T04:36:25.104Z,-3.55
2017-01-23T04:41:21.322Z,-3.44
2017-01-23T04:46:17.601Z,-3.25
2017-01-23T04:51:13.815Z,-3.46
2017-01-23T04:56:10.883Z,-3.41
2017-01-23T05:01:07.570Z,-3.45
2017-01-23T05:06:03.753Z,-3.37
2017-01-23T05:10:59.935Z,-3.22
2017-01-23T05:15:56.314Z,-3.20
2017-01-23T05:20:53.332Z,-3.15
2017-01-23T05:25:49.660Z,-3.19
2017-01-23T05:30:45.838Z,-3.33
2017-01-23T05:35:42.171Z,-3.30
2017-01-23T05:40:38.892Z,-3.27
2017-01-23T05:45:35.921Z,-3.09
2017-01-23T05:50:32.981Z,-2.99
2017-01-23T05:55:29.946Z,-2.97
2017-01-23T06:00:26.343Z,-2.94
2017-01-23T06:05:22.351Z,-2.99
2017-01-23T06:10:18.472Z,-2.76
2017-01-23T06:15:14.730Z,-2.74
2017-01-23T06:20:12.047Z,-2.71
2017-01-23T06:25:08.277Z,-2.76
2017-01-23T06:30:05.436Z,-2.69
2017-01-23T06:35:01.569Z,-3.02
2017-01-23T06:39:58.218Z,-2.84
2017-01-23T06:44:54.340Z,-2.89
2017-01-23T06:49:50.530Z,-2.70
2017-01-23T06:54:46.875Z,-2.76
2017-01-23T06:59:43.183Z,-2.50
2017-01-23T07:04:39.410Z,-2.52
2017-01-23T07:09:35.812Z,-2.34
2017-01-23T07:14:35.393Z,-2.37
2017-01-23T07:19:31.206Z,-2.26
2017-01-23T07:24:27.307Z,-2.22
2017-01-23T07:29:23.727Z,-2.21
2017-01-23T07:34:20.097Z,-2.10
2017-01-23T07:39:16.397Z,-2.12
2017-01-23T07:44:12.784Z,-2.19
2017-01-23T07:49:10.034Z,-2.01
2017-01-23T07:54:06.022Z,-1.94
2017-01-23T07:59:02.413Z,-1.98
2017-01-23T08:03:58.611Z,-2.08
2017-01-23T08:08:55.250Z,-2.12
2017-01-23T08:13:52.420Z,-2.13
2017-01-23T08:18:48.767Z,-2.00
2017-01-23T08:23:44.903Z,-1.95
2017-01-23T08:28:41.263Z,-1.94
2017-01-23T08:33:37.156Z,-1.97
2017-01-23T08:38:33.558Z,-1.97
2017-01-23T08:43:30.042Z,-1.86
2017-01-23T08:48:26.368Z,-1.95
2017-01-23T08:53:22.619Z,-2.00
2017-01-23T08:58:18.976Z,-1.84
2017-01-23T09:03:15.389Z,-1.83
2017-01-23T09:08:11.627Z,-1.82
2017-01-23T09:13:08.004Z,-1.76
2017-01-23T09:18:04.463Z,-1.66
2017-01-23T09:23:00.751Z,-1.58
2017-01-23T09:27:57.873Z,-1.65
2017-01-23T09:32:54.183Z,-1.56
2017-01-23T09:37:50.303Z,-1.51
2017-01-23T09:42:47.642Z,-1.61
2017-01-23T09:47:44.807Z,-1.37
2017-01-23T09:52:41.212Z,-1.38
2017-01-23T09:57:38.295Z,-1.40
2017-01-23T10:02:34.401Z,-1.54
2017-01-23T10:07:30.779Z,-1.61
2017-01-23T10:12:28.385Z,-1.58
2017-01-23T10:17:24.706Z,-1.40
2017-01-23T10:22:21.004Z,-1.53
2017-01-23T10:27:18.216Z,-1.40
2017-01-23T10:32:14.354Z,-1.33
2017-01-23T10:37:10.766Z,-1.50
2017-01-23T10:42:07.140Z,-1.19
2017-01-23T10:47:03.479Z,-1.26
2017-01-23T10:51:59.567Z,-1.20
2017-01-23T10:56:56.082Z,-0.99
2017-01-23T11:01:52.795Z,-0.91
2017-01-23T11:06:49.011Z,-0.93
2017-01-23T11:11:45.519Z,-0.67
2017-01-23T11:16:41.777Z,-0.71
2017-01-23T11:21:38.446Z,-0.52
2017-01-23T11:26:34.873Z,-0.91
2017-01-23T11:31:30.733Z,-0.99
2017-01-23T11:36:27.065Z,-0.83
2017-01-23T11:41:23.350Z,-0.99
2017-01-23T11:46:19.690Z,-0.97
2017-01-23T11:51:16.002Z,-0.80
2017-01-23T11:56:12.521Z,-0.72
2017-01-23T12:01:08.606Z,-1.01
2017-01-23T12:06:04.935Z,-0.77
2017-01-23T12:11:01.559Z,-0.68
2017-01-23T12:15:57.880Z,-0.49
2017-01-23T12:20:54.543Z,-0.41
2017-01-23T12:25:50.968Z,-0.44
2017-01-23T12:30:47.199Z,-0.36
2017-01-23T12:35:43.429Z,-0.39
2017-01-23T12:40:39.644Z,-0.35
2017-01-23T12:45:35.952Z,-0.25
2017-01-23T12:50:32.195Z,-0.14
2017-01-23T12:55:29.532Z,-0.06
2017-01-23T13:00:25.798Z,0.04
2017-01-23T13:05:22.056Z,0.05
2017-01-23T13:10:18.393Z,0.01
2017-01-23T13:15:15.195Z,0.01
2017-01-23T13:20:11.754Z,0.12
2017-01-23T13:25:08.143Z,-0.02
2017-01-23T13:30:05.035Z,0.19
2017-01-23T13:35:01.917Z,0.23
2017-01-23T13:39:58.265Z,0.25
2017-01-23T13:44:54.459Z,0.10
2017-01-23T13:49:50.850Z,0.10
2017-01-23T13:54:47.224Z,0.03
2017-01-23T13:59:43.669Z,-0.02
2017-01-23T14:04:39.785Z,0.01
2017-01-23T14:09:36.078Z,0.16
2017-01-23T14:14:32.702Z,0.07
2017-01-23T14:19:29.180Z,0.12
2017-01-23T14:24:25.367Z,0.03
2017-01-23T14:29:21.676Z,-0.14
2017-01-23T14:34:17.854Z,-0.17
2017-01-23T14:39:13.909Z,-0.29
2017-01-23T14:44:10.161Z,-0.06
2017-01-23T14:49:06.296Z,-0.17
2017-01-23T14:54:02.601Z,-0.29
2017-01-23T14:58:58.812Z,-0.26
2017-01-23T15:03:55.005Z,-0.18
2017-01-23T15:08:52.305Z,-0.18
2017-01-23T15:13:50.065Z,-0.25
2017-01-23T15:18:46.549Z,-0.20
2017-01-23T15:23:43.308Z,-0.28
2017-01-23T15:28:39.503Z,-0.20
2017-01-23T15:33:35.664Z,-0.36
2017-01-23T15:38:31.965Z,-0.34
2017-01-23T15:43:29.182Z,-0.28
2017-01-23T15:48:26.040Z,-0.28
2017-01-23T15:53:23.618Z,-0.28
2017-01-23T15:58:19.523Z,-0.31
2017-01-23T16:03:15.976Z,-0.32
2017-01-23T16:08:11.959Z,-0.26
2017-01-23T16:13:08.264Z,-0.41
2017-01-23T16:18:05.275Z,-0.44
2017-01-23T16:23:01.689Z,-0.50
2017-01-23T16:27:58.668Z,-0.39
2017-01-23T16:32:54.924Z,-0.39
2017-01-23T16:37:51.267Z,-0.36
2017-01-23T16:42:47.548Z,-0.39
2017-01-23T16:47:44.006Z,-0.38
2017-01-23T16:52:40.118Z,-0.34
2017-01-23T16:57:36.492Z,-0.43
2017-01-23T17:02:32.807Z,-0.47
2017-01-23T17:07:29.823Z,-0.52
2017-01-23T17:12:26.952Z,-0.49
2017-01-23T17:17:23.331Z,-0.43
2017-01-23T17:22:21.337Z,-0.43
2017-01-23T17:27:17.559Z,-0.36
2017-01-23T17:32:14.008Z,-0.32
2017-01-23T17:37:10.421Z,-0.32
2017-01-23T17:42:06.727Z,-0.38
2017-01-23T17:47:03.065Z,-0.46
2017-01-23T17:51:58.996Z,-0.46
2017-01-23T17:56:55.365Z,-0.34
2017-01-23T18:01:51.626Z,-0.38
2017-01-23T18:06:47.844Z,-0.31
2017-01-23T18:11:44.222Z,-0.34
2017-01-23T18:16:40.452Z,-0.26
2017-01-23T18:21:36.472Z,-0.26
2017-01-23T18:26:32.733Z,-0.20
2017-01-23T18:31:29.002Z,-0.14
2017-01-23T18:36:25.430Z,-0.20
2017-01-23T18:41:21.773Z,-0.20
2017-01-23T18:46:18.139Z,-0.34
2017-01-23T18:51:14.370Z,-0.26
2017-01-23T18:56:10.847Z,-0.20
2017-01-23T19:01:07.221Z,-0.17
2017-01-23T19:06:03.465Z,-0.18
2017-01-23T19:10:59.935Z,-0.13
2017-01-23T19:15:56.635Z,-0.11
2017-01-23T19:20:53.783Z,-0.21
2017-01-23T19:25:50.232Z,-0.21
2017-01-23T19:30:46.341Z,-0.11
2017-01-23T19:35:42.749Z,-0.13
2017-01-23T19:40:39.142Z,-0.17
2017-01-23T19:45:35.314Z,-0.02
2017-01-23T19:50:32.674Z,-0.18
2017-01-23T19:55:28.957Z,-0.21
2017-01-23T20:00:25.248Z,-0.25
2017-01-23T20:05:21.746Z,-0.25
2017-01-23T20:10:18.239Z,-0.11
2017-01-23T20:15:14.553Z,-0.11
2017-01-23T20:20:11.908Z,-0.08
2017-01-23T20:25:07.892Z,-0.13
2017-01-23T20:30:04.261Z,-0.14
2017-01-23T20:35:00.617Z,-0.20
2017-01-23T20:39:57.055Z,-0.13
2017-01-23T20:44:53.684Z,-0.10
2017-01-23T20:49:49.880Z,-0.14
2017-01-23T20:54:46.217Z,0.03
2017-01-23T20:59:42.614Z,0.07
2017-01-23T21:04:39.042Z,0.00
2017-01-23T21:09:35.352Z,0.03
2017-01-23T21:14:31.980Z,0.00
2017-01-23T21:19:28.366Z,0.00
2017-01-23T21:24:24.677Z,0.00
2017-01-23T21:29:21.753Z,0.12
2017-01-23T21:34:18.216Z,0.07
2017-01-23T21:39:14.698Z,0.00
2017-01-23T21:44:11.558Z,0.01
2017-01-23T21:49:08.596Z,-0.06
2017-01-23T21:54:04.818Z,0.04
2017-01-23T21:59:01.322Z,-0.23
2017-01-23T22:03:57.540Z,-0.08
2017-01-23T22:08:54.020Z,-0.13
2017-01-23T22:13:50.296Z,0.04
2017-01-23T22:18:46.558Z,0.01
2017-01-23T22:23:43.036Z,-0.02
2017-01-23T22:28:39.273Z,0.00
2017-01-23T22:33:37.200Z,0.04
2017-01-23T22:38:33.218Z,0.00
2017-01-23T22:43:29.333Z,0.01
2017-01-23T22:48:26.062Z,-0.02
2017-01-23T22:53:23.226Z,0.01
2017-01-23T22:58:19.634Z,0.08
2017-01-23T23:03:16.289Z,0.05
2017-01-23T23:08:12.557Z,0.12
2017-01-23T23:13:09.010Z,0.18
2017-01-23T23:18:05.531Z,0.22
2017-01-23T23:23:02.264Z,0.34
2017-01-23T23:27:58.439Z,0.19
2017-01-23T23:32:55.494Z,0.10
2017-01-23T23:37:51.750Z,0.15
2017-01-23T23:42:50.429Z,0.23
2017-01-23T23:47:46.319Z,0.23
2017-01-23T23:52:42.041Z,0.31
2017-01-23T23:57:38.600Z,0.25
